Time;durP1;ratioP1;P1;durP2;ratioP2;P2;SDS_P1;SDS_P2;PMS_P1;PMS_P2;Temp;Humidity;BMP_temperature;BMP_pressure;BME280_temperature;BME280_humidity;BME280_pressure;Samples;Min_cycle;Max_cycle;Signal;HPM_P1;HPM_P2
2022/07/21 00:02:10;;;;;;;19.02;14.70;;;20.50;99.90;;;;;;5047722;28;20053;-51
2022/07/21 00:04:36;;;;;;;24.60;16.17;;;20.50;99.90;;;;;;5047414;28;20049;-53
2022/07/21 00:07:06;;;;;;;16.13;14.52;;;20.50;99.90;;;;;;5047446;28;20049;-51
2022/07/21 00:09:31;;;;;;;18.33;15.32;;;20.40;99.90;;;;;;5028736;28;20216;-47
2022/07/21 00:11:57;;;;;;;20.02;16.58;;;20.40;99.90;;;;;;5012022;28;20160;-51
2022/07/21 00:14:26;;;;;;;20.73;17.13;;;20.40;99.90;;;;;;5005959;28;20089;-54
2022/07/21 00:16:52;;;;;;;22.10;17.63;;;20.40;99.90;;;;;;5029697;28;20054;-51
2022/07/21 00:19:18;;;;;;;23.35;18.05;;;20.30;99.90;;;;;;5046631;28;20048;-51
2022/07/21 00:21:44;;;;;;;20.13;16.67;;;20.20;99.90;;;;;;5037651;28;20053;-51
2022/07/21 00:24:11;;;;;;;24.45;17.70;;;20.10;99.90;;;;;;5034684;28;20085;-52
2022/07/21 00:26:37;;;;;;;21.55;18.08;;;20.20;99.90;;;;;;5023366;28;20056;-49
2022/07/21 00:29:03;;;;;;;19.27;17.20;;;20.10;99.90;;;;;;5026333;28;20049;-52
2022/07/21 00:31:29;;;;;;;23.23;18.08;;;20.10;99.90;;;;;;4996563;28;20083;-51
2022/07/21 00:33:55;;;;;;;28.65;19.65;;;20.10;99.90;;;;;;5018932;28;20092;-53
2022/07/21 00:36:22;;;;;;;21.40;18.92;;;20.00;99.90;;;;;;5022886;28;20049;-53
2022/07/21 00:38:48;;;;;;;24.60;19.90;;;20.10;99.90;;;;;;5038249;28;20483;-53
2022/07/21 00:41:14;;;;;;;24.70;20.13;;;20.00;99.90;;;;;;5026809;28;20037;-52
2022/07/21 00:43:40;;;;;;;24.27;19.83;;;20.10;99.90;;;;;;5026338;28;20053;-50
2022/07/21 00:46:07;;;;;;;20.17;17.95;;;20.00;99.90;;;;;;5026622;28;20128;-49
2022/07/21 00:48:33;;;;;;;21.73;19.23;;;20.00;99.90;;;;;;5026252;28;20056;-50
2022/07/21 00:50:58;;;;;;;22.27;19.77;;;20.00;99.90;;;;;;5044640;28;20689;-50
2022/07/21 00:53:24;;;;;;;24.45;20.35;;;20.00;99.90;;;;;;5028135;28;20112;-52
2022/07/21 00:55:51;;;;;;;25.02;20.38;;;20.00;99.90;;;;;;5031369;28;20060;-49
2022/07/21 00:58:18;;;;;;;21.67;19.17;;;20.00;99.90;;;;;;5017775;28;20161;-49
2022/07/21 01:00:44;;;;;;;22.58;20.17;;;20.00;99.90;;;;;;5024911;28;20045;-45
2022/07/21 01:03:10;;;;;;;23.73;21.20;;;19.90;99.90;;;;;;5026017;28;20041;-49
2022/07/21 01:05:37;;;;;;;25.55;21.60;;;20.00;99.90;;;;;;5008981;28;20054;-47
2022/07/21 01:08:03;;;;;;;25.25;20.58;;;20.00;99.90;;;;;;5025687;28;20045;-51
2022/07/21 01:10:32;;;;;;;23.17;20.48;;;19.90;99.90;;;;;;4986640;28;20049;-48
2022/07/21 01:13:00;;;;;;;26.80;21.23;;;19.90;99.90;;;;;;5005314;28;20050;-48
2022/07/21 01:15:26;;;;;;;25.33;22.73;;;19.80;99.90;;;;;;5024114;28;20051;-50
2022/07/21 01:17:52;;;;;;;26.08;21.23;;;19.80;99.90;;;;;;5025443;28;20048;-49
2022/07/21 01:20:20;;;;;;;25.00;21.88;;;19.80;99.90;;;;;;5007868;28;20180;-50
2022/07/21 01:22:50;;;;;;;34.05;23.85;;;19.80;99.90;;;;;;5025062;28;20081;-48
2022/07/21 01:25:18;;;;;;;30.52;23.35;;;19.80;99.90;;;;;;5006966;28;20057;-50
2022/07/21 01:27:45;;;;;;;29.40;22.08;;;19.80;99.90;;;;;;5025594;28;20468;-50
2022/07/21 01:30:12;;;;;;;27.67;23.95;;;19.80;99.90;;;;;;5025189;28;20136;-50
2022/07/21 01:32:40;;;;;;;30.17;24.67;;;19.80;99.90;;;;;;5024432;28;20496;-51
2022/07/21 01:35:09;;;;;;;24.00;21.67;;;19.80;99.90;;;;;;5026265;28;20049;-50
2022/07/21 01:37:38;;;;;;;26.75;23.92;;;19.80;99.90;;;;;;5025380;28;20045;-50
2022/07/21 01:42:54;;;;;;;27.70;24.73;;;19.70;99.90;;;;;;5008429;28;20064;-50
2022/07/21 01:45:22;;;;;;;25.55;22.95;;;19.80;99.90;;;;;;5005382;28;20281;-54
2022/07/21 01:47:54;;;;;;;37.45;25.58;;;19.80;99.90;;;;;;5004491;28;20046;-48
2022/07/21 01:50:26;;;;;;;28.60;25.55;;;19.70;99.90;;;;;;5005601;28;20056;-49
2022/07/21 01:52:54;;;;;;;28.17;24.95;;;19.70;99.90;;;;;;4987444;28;20129;-49
2022/07/21 01:55:21;;;;;;;26.55;23.88;;;19.80;99.90;;;;;;4984837;28;20465;-50
2022/07/21 01:57:47;;;;;;;34.53;25.95;;;19.70;99.90;;;;;;5008396;28;20136;-46
2022/07/21 02:00:13;;;;;;;28.63;25.17;;;19.80;99.90;;;;;;5036291;28;20049;-52
2022/07/21 02:02:39;;;;;;;28.85;25.80;;;19.80;99.90;;;;;;5044942;28;20052;-51
2022/07/21 02:05:06;;;;;;;34.45;26.50;;;19.70;99.90;;;;;;5029806;28;20053;-49
2022/07/21 02:07:33;;;;;;;28.13;25.13;;;19.70;99.90;;;;;;5036275;28;20044;-45
2022/07/21 02:09:59;;;;;;;25.45;22.80;;;19.80;99.90;;;;;;5041082;28;20055;-48
2022/07/21 02:12:25;;;;;;;28.70;25.92;;;19.70;99.90;;;;;;5044909;28;20522;-48
2022/07/21 02:14:50;;;;;;;26.23;23.63;;;19.80;99.90;;;;;;5033568;28;20447;-49
2022/07/21 02:17:16;;;;;;;26.58;23.60;;;19.70;99.90;;;;;;5003250;28;20054;-49
2022/07/21 02:19:42;;;;;;;25.25;22.50;;;19.80;99.90;;;;;;5020296;28;20045;-50
2022/07/21 02:22:08;;;;;;;28.05;25.23;;;19.80;99.90;;;;;;5024040;28;20157;-49
2022/07/21 02:24:34;;;;;;;27.95;24.88;;;19.80;99.90;;;;;;5036260;28;20056;-51
2022/07/21 02:27:01;;;;;;;28.23;25.20;;;19.80;99.90;;;;;;5033643;28;20602;-50
2022/07/21 02:29:27;;;;;;;28.85;25.85;;;19.70;99.90;;;;;;5002764;28;20137;-51
2022/07/21 02:31:53;;;;;;;29.13;26.25;;;19.80;99.90;;;;;;5033488;28;20151;-52
2022/07/21 02:34:19;;;;;;;30.50;27.40;;;19.70;99.90;;;;;;5044799;28;20080;-52
2022/07/21 02:36:47;;;;;;;28.20;25.40;;;19.80;99.90;;;;;;5039800;28;20053;-51
2022/07/21 02:39:19;;;;;;;28.27;25.35;;;19.80;99.90;;;;;;5032797;28;20064;-48
2022/07/21 02:41:45;;;;;;;27.13;24.65;;;19.70;99.90;;;;;;5028515;28;20057;-52
2022/07/21 02:44:20;;;;;;;29.67;25.48;;;19.80;99.90;;;;;;5028366;28;20053;-53
2022/07/21 02:46:45;;;;;;;27.63;24.77;;;19.80;99.90;;;;;;5048322;28;20162;-53
2022/07/21 02:49:11;;;;;;;28.45;25.80;;;19.70;99.90;;;;;;5048975;28;20057;-52
2022/07/21 02:51:37;;;;;;;31.80;28.38;;;19.80;99.90;;;;;;5029433;28;20041;-51
2022/07/21 02:54:03;;;;;;;35.50;29.65;;;19.80;99.90;;;;;;5011397;28;20100;-49
2022/07/21 02:56:29;;;;;;;32.50;29.25;;;19.80;99.90;;;;;;5037666;28;20052;-52
2022/07/21 02:58:55;;;;;;;32.72;29.50;;;19.80;99.90;;;;;;5007676;28;20062;-53
2022/07/21 03:01:20;;;;;;;33.08;29.83;;;19.80;99.90;;;;;;5028845;28;20081;-50
2022/07/21 03:03:46;;;;;;;32.22;29.13;;;19.80;99.90;;;;;;5028147;28;20117;-52
2022/07/21 03:06:12;;;;;;;31.52;28.58;;;19.70;99.90;;;;;;5034546;28;20062;-49
2022/07/21 03:08:45;;;;;;;34.67;31.17;;;19.70;99.90;;;;;;5029524;28;20107;-54
2022/07/21 03:11:13;;;;;;;35.28;30.55;;;19.70;99.90;;;;;;5018016;28;20571;-53
2022/07/21 03:13:39;;;;;;;36.13;31.90;;;19.70;99.90;;;;;;5032991;28;20052;-50
2022/07/21 03:16:05;;;;;;;35.95;32.13;;;19.70;99.90;;;;;;5006853;28;20153;-51
2022/07/21 03:18:35;;;;;;;38.80;32.33;;;19.70;99.90;;;;;;5027301;28;20608;-52
2022/07/21 03:21:01;;;;;;;34.90;31.33;;;19.60;99.90;;;;;;5027833;28;20064;-51
2022/07/21 03:23:27;;;;;;;32.88;29.80;;;19.70;99.90;;;;;;5034247;28;20049;-48
2022/07/21 03:25:53;;;;;;;37.00;33.20;;;19.70;99.90;;;;;;5034613;28;20080;-51
2022/07/21 03:28:19;;;;;;;43.95;35.30;;;19.80;99.90;;;;;;5028996;28;20045;-53
2022/07/21 03:30:45;;;;;;;36.25;32.83;;;19.70;99.90;;;;;;5035149;28;20048;-51
2022/07/21 03:33:14;;;;;;;33.30;30.30;;;19.70;99.90;;;;;;5023711;28;20126;-51
2022/07/21 03:35:40;;;;;;;33.78;30.52;;;19.70;99.90;;;;;;5028012;28;20224;-55
2022/07/21 03:38:06;;;;;;;33.05;29.95;;;19.60;99.90;;;;;;5040817;28;20057;-54
2022/07/21 03:40:34;;;;;;;33.83;30.52;;;19.60;99.90;;;;;;5007014;28;20054;-50
2022/07/21 03:43:06;;;;;;;33.55;30.45;;;19.50;99.90;;;;;;5043429;28;20521;-54
2022/07/21 03:45:34;;;;;;;32.47;29.35;;;19.50;99.90;;;;;;5031690;28;20049;-51
2022/07/21 03:48:02;;;;;;;31.52;28.42;;;19.50;99.90;;;;;;5026671;28;20108;-53
2022/07/21 03:50:29;;;;;;;31.98;28.70;;;19.40;99.90;;;;;;5024854;28;20057;-52
2022/07/21 03:52:55;;;;;;;31.48;28.67;;;19.30;99.90;;;;;;5027578;28;20111;-49
2022/07/21 03:55:22;;;;;;;29.95;27.25;;;19.40;99.90;;;;;;5027384;28;20132;-53
2022/07/21 03:57:55;;;;;;;30.73;27.92;;;19.30;99.90;;;;;;5026618;28;20807;-52
2022/07/21 04:00:30;;;;;;;31.02;27.63;;;19.40;99.90;;;;;;5027074;28;20057;-54
2022/07/21 04:02:57;;;;;;;29.70;26.98;;;19.30;99.90;;;;;;5026608;28;20052;-54
2022/07/21 04:05:23;;;;;;;29.08;26.40;;;19.30;99.90;;;;;;5026034;28;20041;-50
2022/07/21 04:07:51;;;;;;;29.75;26.85;;;19.30;99.90;;;;;;5034169;28;20045;-52
2022/07/21 04:10:20;;;;;;;29.02;26.42;;;19.20;99.90;;;;;;5046464;28;20060;-51
2022/07/21 04:12:47;;;;;;;28.88;26.38;;;19.20;99.90;;;;;;5029510;28;20048;-50
2022/07/21 04:15:13;;;;;;;28.75;26.05;;;19.20;99.90;;;;;;5028014;28;20079;-53
2022/07/21 04:17:40;;;;;;;29.00;26.40;;;19.30;99.90;;;;;;5046288;28;20230;-53
2022/07/21 04:20:15;;;;;;;28.45;25.88;;;19.20;99.90;;;;;;5028483;28;20145;-52
2022/07/21 04:22:43;;;;;;;29.63;26.77;;;19.20;99.90;;;;;;5046845;28;20198;-52
2022/07/21 04:25:09;;;;;;;30.48;27.55;;;19.20;99.90;;;;;;5040389;28;20045;-52
2022/07/21 04:27:36;;;;;;;31.00;27.88;;;19.20;99.90;;;;;;5035666;28;20052;-54
2022/07/21 04:30:04;;;;;;;29.98;27.17;;;19.30;99.90;;;;;;5041962;28;20038;-52
2022/07/21 04:32:30;;;;;;;31.77;28.88;;;19.20;99.90;;;;;;5039359;28;20534;-51
2022/07/21 04:34:56;;;;;;;31.77;28.88;;;19.20;99.90;;;;;;5025915;28;20056;-52
2022/07/21 04:37:22;;;;;;;29.70;26.95;;;19.30;99.90;;;;;;5026779;28;20041;-51
2022/07/21 04:39:48;;;;;;;31.05;27.77;;;19.20;99.90;;;;;;5026386;28;20056;-50
2022/07/21 04:42:14;;;;;;;31.33;28.42;;;19.30;99.90;;;;;;5026493;28;20057;-52
2022/07/21 04:44:40;;;;;;;29.70;26.77;;;19.30;99.90;;;;;;5026235;28;20045;-51
2022/07/21 04:47:06;;;;;;;30.48;27.60;;;19.30;99.90;;;;;;5035329;28;20457;-52
2022/07/21 04:49:32;;;;;;;31.40;28.42;;;19.20;99.90;;;;;;5045674;28;20088;-47
2022/07/21 04:51:58;;;;;;;30.65;27.83;;;19.20;99.90;;;;;;5046163;28;20052;-50
2022/07/21 04:54:24;;;;;;;31.67;28.67;;;19.20;99.90;;;;;;5030549;28;20115;-55
2022/07/21 04:56:50;;;;;;;31.77;28.65;;;19.30;99.90;;;;;;5026827;28;20049;-49
2022/07/21 04:59:16;;;;;;;31.35;28.50;;;19.30;99.90;;;;;;5024810;28;20057;-51
2022/07/21 05:01:42;;;;;;;31.95;29.02;;;19.30;99.90;;;;;;5008516;28;20092;-50
2022/07/21 05:04:08;;;;;;;32.00;29.08;;;19.30;99.90;;;;;;5010395;28;20853;-52
2022/07/21 05:06:34;;;;;;;32.25;29.30;;;19.20;99.90;;;;;;5045887;28;20123;-52
2022/07/21 05:09:10;;;;;;;31.10;28.23;;;19.40;99.90;;;;;;5037470;28;20137;-53
2022/07/21 05:11:36;;;;;;;31.85;29.00;;;19.30;99.90;;;;;;5027198;28;20042;-52
2022/07/21 05:14:02;;;;;;;31.55;28.75;;;19.30;99.90;;;;;;5046554;28;20045;-53
2022/07/21 05:16:38;;;;;;;29.40;26.73;;;19.40;99.90;;;;;;5045907;28;20052;-47
2022/07/21 05:19:03;;;;;;;30.88;28.08;;;19.40;99.90;;;;;;5028241;28;20076;-52
2022/07/21 05:21:29;;;;;;;31.02;28.23;;;19.40;99.90;;;;;;5033123;28;20072;-52
2022/07/21 05:23:56;;;;;;;31.98;28.92;;;19.40;99.90;;;;;;4989035;28;20119;-51
2022/07/21 05:26:22;;;;;;;30.33;27.65;;;19.50;99.90;;;;;;5038633;28;20055;-50
2022/07/21 05:28:51;;;;;;;30.65;27.75;;;19.40;99.90;;;;;;5036020;28;20053;-53
2022/07/21 05:31:17;;;;;;;30.48;27.67;;;19.50;99.90;;;;;;5023104;28;20563;-55
2022/07/21 05:33:43;;;;;;;30.77;27.98;;;19.50;99.90;;;;;;4987672;28;20064;-52
2022/07/21 05:36:20;;;;;;;32.05;29.08;;;19.50;99.90;;;;;;5032209;28;20171;-52
2022/07/21 05:38:51;;;;;;;32.28;29.33;;;19.50;99.90;;;;;;5025468;28;20045;-53
2022/07/21 05:41:17;;;;;;;34.28;30.85;;;19.50;99.90;;;;;;5028754;28;20124;-51
2022/07/21 05:43:43;;;;;;;33.05;30.13;;;19.60;99.90;;;;;;5025021;28;20124;-54
2022/07/21 05:46:10;;;;;;;32.63;29.63;;;19.60;99.90;;;;;;5038559;28;20053;-53
2022/07/21 05:48:41;;;;;;;33.85;30.63;;;19.60;99.90;;;;;;5025478;28;20128;-53
2022/07/21 05:51:07;;;;;;;34.35;31.35;;;19.70;99.90;;;;;;5006907;28;20064;-51
2022/07/21 05:53:33;;;;;;;35.00;31.70;;;19.70;99.90;;;;;;5025730;28;20045;-52
2022/07/21 05:55:59;;;;;;;33.20;29.95;;;19.60;99.90;;;;;;5025410;28;20045;-51
2022/07/21 05:58:26;;;;;;;32.55;29.45;;;19.70;99.90;;;;;;5021375;28;20061;-50
2022/07/21 06:01:13;;;;;;;32.92;29.85;;;19.60;99.90;;;;;;5032215;28;20053;-53
2022/07/21 06:03:45;;;;;;;33.33;30.38;;;19.70;99.90;;;;;;5045635;28;20079;-52
2022/07/21 06:06:13;;;;;;;30.52;27.85;;;19.60;99.90;;;;;;5045725;28;20049;-51
2022/07/21 06:08:40;;;;;;;33.13;30.05;;;19.60;99.90;;;;;;5040932;28;20041;-54
2022/07/21 06:11:11;;;;;;;33.55;30.40;;;19.60;99.90;;;;;;5024522;28;20053;-51
2022/07/21 06:13:37;;;;;;;35.85;32.55;;;19.60;99.90;;;;;;5024218;28;20400;-55
2022/07/21 06:16:07;;;;;;;32.30;29.30;;;19.80;99.90;;;;;;5032861;28;20122;-51
2022/07/21 06:18:33;;;;;;;32.08;29.15;;;19.90;99.90;;;;;;5034227;28;20049;-52
2022/07/21 06:21:00;;;;;;;31.23;28.38;;;20.00;99.90;;;;;;5038299;28;20786;-55
2022/07/21 06:23:27;;;;;;;33.50;30.25;;;20.20;99.90;;;;;;5025994;28;20061;-51
2022/07/21 06:25:53;;;;;;;35.65;32.47;;;20.20;99.90;;;;;;5029245;28;20053;-53
2022/07/21 06:28:22;;;;;;;33.20;29.85;;;20.20;99.90;;;;;;5025168;28;20131;-53
2022/07/21 06:30:49;;;;;;;33.40;30.30;;;20.30;99.90;;;;;;5032329;28;20102;-49
2022/07/21 06:33:15;;;;;;;32.85;29.67;;;20.20;99.90;;;;;;5026796;28;20063;-54
2022/07/21 06:35:41;;;;;;;32.53;29.33;;;20.30;99.90;;;;;;5026435;28;20088;-55
2022/07/21 06:38:08;;;;;;;32.58;29.75;;;20.30;99.90;;;;;;5026889;28;20068;-50
2022/07/21 06:40:34;;;;;;;33.95;30.98;;;20.40;99.90;;;;;;5044171;28;20049;-51
2022/07/21 06:43:00;;;;;;;33.95;30.95;;;20.50;99.90;;;;;;5022470;28;20056;-53
2022/07/21 06:45:26;;;;;;;32.45;29.60;;;20.60;99.90;;;;;;5010424;28;20116;-53
2022/07/21 06:48:00;;;;;;;31.92;29.02;;;20.70;99.90;;;;;;5032948;28;20451;-55
2022/07/21 06:50:26;;;;;;;33.10;30.23;;;20.80;99.90;;;;;;5023650;28;20053;-54
2022/07/21 06:52:52;;;;;;;33.78;30.48;;;20.80;99.90;;;;;;5031233;28;20871;-52
2022/07/21 06:55:18;;;;;;;32.42;29.48;;;20.90;99.90;;;;;;5044060;28;20414;-50
2022/07/21 06:57:45;;;;;;;33.25;30.08;;;20.80;99.90;;;;;;5017724;28;20061;-53
2022/07/21 07:00:17;;;;;;;34.38;31.48;;;20.70;99.90;;;;;;5024324;28;20096;-54
2022/07/21 07:02:43;;;;;;;31.25;28.65;;;20.70;99.90;;;;;;5023809;28;20103;-51
2022/07/21 07:05:09;;;;;;;32.13;29.30;;;20.60;99.90;;;;;;5023875;28;20049;-48
2022/07/21 07:07:35;;;;;;;34.63;31.60;;;20.50;99.90;;;;;;5028942;28;20491;-50
2022/07/21 07:10:02;;;;;;;34.63;31.38;;;20.40;99.90;;;;;;5044766;28;20061;-51
2022/07/21 07:12:28;;;;;;;35.60;32.30;;;20.30;99.90;;;;;;5035936;28;20049;-47
2022/07/21 07:14:54;;;;;;;34.05;31.00;;;20.20;99.90;;;;;;5024270;28;20053;-52
2022/07/21 07:17:23;;;;;;;35.55;32.15;;;20.20;99.90;;;;;;5027286;28;20096;-49
2022/07/21 07:19:49;;;;;;;36.28;33.00;;;20.10;99.90;;;;;;5036027;28;20096;-54
2022/07/21 07:22:15;;;;;;;35.20;32.05;;;20.10;99.90;;;;;;5006261;28;20054;-52
2022/07/21 07:24:41;;;;;;;37.83;34.10;;;20.10;99.90;;;;;;5023915;28;20053;-52
2022/07/21 07:27:13;;;;;;;39.05;35.20;;;20.00;99.90;;;;;;5027987;28;20050;-52
2022/07/21 07:29:39;;;;;;;41.00;37.05;;;20.00;99.90;;;;;;5008080;28;20065;-50
2022/07/21 07:32:05;;;;;;;38.60;34.88;;;20.00;99.90;;;;;;5037627;28;20057;-54
2022/07/21 07:34:31;;;;;;;38.75;34.97;;;19.90;99.90;;;;;;5029417;28;20107;-52
2022/07/21 07:36:58;;;;;;;39.97;36.22;;;19.90;99.90;;;;;;5040741;28;20054;-48
2022/07/21 07:39:24;;;;;;;43.50;39.08;;;19.80;99.90;;;;;;5027468;28;20049;-50
2022/07/21 07:41:50;;;;;;;44.28;39.47;;;19.90;99.90;;;;;;5038364;28;20102;-51
2022/07/21 07:44:16;;;;;;;44.92;40.13;;;19.80;99.90;;;;;;5026210;28;20089;-52
2022/07/21 07:46:41;;;;;;;46.45;41.45;;;19.90;99.90;;;;;;5027763;28;20096;-49
2022/07/21 07:49:08;;;;;;;47.67;42.70;;;19.90;99.90;;;;;;5027893;28;20073;-50
2022/07/21 07:51:34;;;;;;;48.30;43.30;;;19.80;99.90;;;;;;5029636;28;20061;-53
2022/07/21 07:54:03;;;;;;;47.83;43.17;;;19.80;99.90;;;;;;5027915;28;20134;-51
2022/07/21 07:56:30;;;;;;;50.40;45.60;;;19.80;99.90;;;;;;5007038;28;20045;-49
2022/07/21 07:58:59;;;;;;;49.03;44.38;;;19.60;99.90;;;;;;4998888;28;20240;-49
2022/07/21 08:01:25;;;;;;;50.30;45.58;;;19.60;99.90;;;;;;5007646;28;20057;-49
2022/07/21 08:03:54;;;;;;;52.45;47.42;;;19.60;99.90;;;;;;5006658;28;20053;-51
2022/07/21 08:06:22;;;;;;;52.97;48.17;;;19.60;99.90;;;;;;5007323;28;20046;-50
2022/07/21 08:08:49;;;;;;;50.85;45.88;;;19.60;99.90;;;;;;5009849;28;20057;-49
2022/07/21 08:11:15;;;;;;;53.20;48.35;;;19.50;99.90;;;;;;5027131;28;20208;-50
2022/07/21 08:13:41;;;;;;;56.08;50.92;;;19.50;99.90;;;;;;5009005;28;20072;-52
2022/07/21 08:16:09;;;;;;;58.30;52.42;;;19.40;99.90;;;;;;5026900;28;20057;-54
2022/07/21 08:18:35;;;;;;;57.80;52.47;;;19.50;99.90;;;;;;5023266;28;20048;-54
2022/07/21 08:21:00;;;;;;;58.53;52.90;;;19.40;99.90;;;;;;5025600;28;20053;-48
2022/07/21 08:23:26;;;;;;;58.10;52.47;;;19.40;99.90;;;;;;5026701;28;20072;-52
2022/07/21 08:25:52;;;;;;;58.05;52.25;;;19.40;99.90;;;;;;5027001;28;20052;-48
2022/07/21 08:28:23;;;;;;;59.00;53.20;;;19.40;99.90;;;;;;5027017;28;20049;-50
2022/07/21 08:30:49;;;;;;;56.13;50.97;;;19.40;99.90;;;;;;5015137;28;20045;-50
2022/07/21 08:33:15;;;;;;;60.08;54.25;;;19.50;99.90;;;;;;5007551;28;20125;-50
2022/07/21 08:35:41;;;;;;;59.20;53.38;;;19.50;99.90;;;;;;5006866;28;20662;-50
2022/07/21 08:38:08;;;;;;;59.35;53.83;;;19.50;99.90;;;;;;5006661;28;20042;-48
2022/07/21 08:40:37;;;;;;;61.10;54.83;;;19.60;99.90;;;;;;5007082;28;20693;-50
2022/07/21 08:43:06;;;;;;;60.33;54.47;;;19.70;99.90;;;;;;5012550;28;20061;-53
2022/07/21 08:45:32;;;;;;;66.15;59.72;;;19.60;99.90;;;;;;5025386;28;20045;-51
2022/07/21 08:47:59;;;;;;;64.63;58.28;;;19.60;99.90;;;;;;5006794;28;20052;-52
2022/07/21 08:50:28;;;;;;;67.25;60.78;;;19.60;99.90;;;;;;5006666;28;20050;-54
2022/07/21 08:52:54;;;;;;;67.82;61.28;;;19.70;99.90;;;;;;5027001;28;20854;-52
2022/07/21 08:55:20;;;;;;;67.43;61.08;;;19.80;99.90;;;;;;5026400;28;20057;-49
2022/07/21 08:57:46;;;;;;;68.50;62.08;;;19.80;99.90;;;;;;4998330;28;20072;-50
2022/07/21 09:00:12;;;;;;;63.88;57.97;;;19.80;99.90;;;;;;5007657;28;20080;-52
2022/07/21 09:02:39;;;;;;;65.43;59.33;;;19.80;99.90;;;;;;5015904;28;20688;-50
2022/07/21 09:05:08;;;;;;;66.47;59.78;;;19.80;99.90;;;;;;5036410;28;20046;-50
2022/07/21 09:08:06;;;;;;;62.40;55.95;;;19.90;99.90;;;;;;5027090;28;20052;-52
2022/07/21 09:10:33;;;;;;;65.65;59.08;;;19.90;99.90;;;;;;4928046;29;20055;-54
2022/07/21 09:13:03;;;;;;;68.47;61.53;;;20.00;99.90;;;;;;4945395;29;20090;-48
2022/07/21 09:15:34;;;;;;;65.07;58.53;;;20.00;99.90;;;;;;4944862;29;20518;-49
2022/07/21 09:18:13;;;;;;;65.78;59.60;;;20.10;99.90;;;;;;4929138;29;20063;-53
2022/07/21 09:20:53;;;;;;;62.42;56.20;;;20.10;99.90;;;;;;4945289;29;20553;-51
2022/07/21 09:23:23;;;;;;;60.65;54.78;;;20.10;99.90;;;;;;4942481;29;20086;-54
2022/07/21 09:25:54;;;;;;;62.45;56.10;;;20.20;99.90;;;;;;4945393;29;20050;-46
2022/07/21 09:28:22;;;;;;;56.45;51.17;;;20.30;99.90;;;;;;4944991;29;20652;-52
2022/07/21 09:30:51;;;;;;;57.38;51.85;;;20.30;99.90;;;;;;4934034;29;20048;-51
2022/07/21 09:33:26;;;;;;;54.88;49.70;;;20.40;99.90;;;;;;4928283;29;20094;-50
2022/07/21 09:35:57;;;;;;;53.92;48.80;;;20.40;99.90;;;;;;4926535;29;20495;-50
2022/07/21 09:38:24;;;;;;;53.33;48.05;;;20.30;99.90;;;;;;4944991;29;20059;-50
2022/07/21 09:40:50;;;;;;;54.17;49.10;;;20.40;99.90;;;;;;4944568;29;20145;-51
2022/07/21 09:43:41;;;;;;;55.58;50.28;;;20.30;99.90;;;;;;4944445;29;20168;-50
2022/07/21 09:46:30;;;;;;;54.13;49.00;;;20.40;99.90;;;;;;4993096;28;20064;-51
2022/07/21 09:49:00;;;;;;;44.67;40.58;;;20.40;99.90;;;;;;5044162;28;20056;-54
2022/07/21 09:51:31;;;;;;;35.70;32.30;;;20.40;99.90;;;;;;5024912;28;20631;-54
2022/07/21 09:53:59;;;;;;;30.95;27.95;;;20.50;99.90;;;;;;5040201;28;20161;-49
2022/07/21 09:56:27;;;;;;;29.15;26.42;;;20.40;99.90;;;;;;5037097;28;20080;-52
2022/07/21 09:58:54;;;;;;;30.05;27.17;;;20.50;99.90;;;;;;5000544;28;20066;-50
2022/07/21 10:01:21;;;;;;;25.75;23.35;;;20.50;99.90;;;;;;5002874;28;20057;-47
2022/07/21 10:03:48;;;;;;;25.77;23.50;;;20.50;99.90;;;;;;4997517;28;20129;-53
2022/07/21 10:06:19;;;;;;;23.23;20.90;;;20.70;99.90;;;;;;5003437;28;20053;-50
2022/07/21 10:08:45;;;;;;;22.63;20.30;;;20.70;99.90;;;;;;5008685;28;20073;-52
2022/07/21 10:11:12;;;;;;;21.75;19.77;;;20.70;99.90;;;;;;5004041;28;20140;-46
2022/07/21 10:13:39;;;;;;;23.92;21.42;;;20.90;99.90;;;;;;5009866;28;20049;-52
2022/07/21 10:16:11;;;;;;;25.63;23.25;;;21.10;99.90;;;;;;5008351;28;20049;-51
2022/07/21 10:18:55;;;;;;;26.05;23.75;;;21.20;99.90;;;;;;5006354;28;20058;-47
2022/07/21 10:21:26;;;;;;;25.52;23.15;;;21.40;99.90;;;;;;5006345;28;20050;-51
2022/07/21 10:23:54;;;;;;;27.15;24.42;;;21.70;99.90;;;;;;5024628;28;20049;-50
2022/07/21 10:26:21;;;;;;;27.95;25.42;;;21.80;99.90;;;;;;5004100;28;20108;-53
2022/07/21 10:28:47;;;;;;;26.80;24.33;;;21.90;99.90;;;;;;5022569;28;20054;-50
2022/07/21 10:31:16;;;;;;;26.65;24.20;;;22.20;99.90;;;;;;5019716;28;20046;-46
2022/07/21 10:33:54;;;;;;;29.98;27.17;;;22.20;99.90;;;;;;5006321;28;20081;-54
2022/07/21 10:36:26;;;;;;;26.85;24.45;;;22.30;99.90;;;;;;5001228;28;20509;-52
2022/07/21 10:39:12;;;;;;;27.27;24.98;;;22.40;99.90;;;;;;5005821;28;20125;-53
2022/07/21 10:41:59;;;;;;;27.38;24.77;;;22.40;99.90;;;;;;4998295;28;20053;-53
2022/07/21 10:44:30;;;;;;;24.73;22.52;;;22.30;99.90;;;;;;4999013;28;20096;-54
2022/07/21 10:47:05;;;;;;;23.80;21.77;;;22.30;99.90;;;;;;4996709;28;20142;-54
2022/07/21 10:49:59;;;;;;;23.85;21.58;;;22.30;99.90;;;;;;5004885;28;20128;-54
2022/07/21 10:52:41;;;;;;;24.42;22.30;;;22.30;99.90;;;;;;5022249;28;20049;-50
2022/07/21 10:55:10;;;;;;;24.50;22.40;;;22.30;99.90;;;;;;5004796;28;20078;-53
2022/07/21 10:57:42;;;;;;;24.33;22.05;;;22.30;99.90;;;;;;5003131;28;20217;-50
2022/07/21 11:00:29;;;;;;;23.48;21.38;;;22.20;99.90;;;;;;5021687;28;20411;-50
2022/07/21 11:03:00;;;;;;;23.05;21.05;;;22.20;99.90;;;;;;5029627;28;20051;-53
2022/07/21 11:05:29;;;;;;;22.92;20.95;;;22.30;99.90;;;;;;5033593;28;20053;-51
2022/07/21 11:08:17;;;;;;;23.65;21.65;;;22.30;99.90;;;;;;5004358;28;20057;-47
2022/07/21 11:10:49;;;;;;;24.85;22.63;;;22.40;99.90;;;;;;5008120;28;20049;-54
2022/07/21 11:13:26;;;;;;;24.88;22.77;;;22.40;99.90;;;;;;5010211;28;20049;-53
2022/07/21 11:15:55;;;;;;;25.77;23.67;;;22.40;99.90;;;;;;5037858;28;20085;-50
2022/07/21 11:18:23;;;;;;;25.88;23.52;;;22.40;99.90;;;;;;5042495;28;20758;-52
2022/07/21 11:21:16;;;;;;;25.45;22.92;;;22.40;99.90;;;;;;5019595;28;20159;-51
2022/07/21 11:23:46;;;;;;;23.77;21.88;;;22.40;99.90;;;;;;5021778;28;20049;-54
2022/07/21 11:26:16;;;;;;;23.05;21.08;;;22.40;99.90;;;;;;5029819;28;20073;-53
2022/07/21 11:28:43;;;;;;;24.42;22.33;;;22.40;99.90;;;;;;5028150;28;20131;-53
2022/07/21 11:31:24;;;;;;;24.38;22.38;;;22.30;99.90;;;;;;5040029;28;20052;-53
2022/07/21 11:33:50;;;;;;;23.42;21.45;;;22.30;99.90;;;;;;5029616;28;20072;-50
2022/07/21 11:36:24;;;;;;;25.08;22.98;;;22.30;99.90;;;;;;5023030;28;20045;-47
2022/07/21 11:39:07;;;;;;;23.70;21.90;;;22.20;99.90;;;;;;5047077;28;20384;-51
2022/07/21 11:41:35;;;;;;;23.58;21.67;;;22.20;99.90;;;;;;5044121;28;20045;-52
2022/07/21 11:44:08;;;;;;;24.80;22.33;;;22.00;99.90;;;;;;5035219;28;20045;-52
2022/07/21 11:46:48;;;;;;;24.45;22.30;;;21.90;99.90;;;;;;5027114;28;20076;-52
2022/07/21 11:49:14;;;;;;;25.05;22.95;;;21.70;99.90;;;;;;5022176;28;20575;-53
2022/07/21 11:51:47;;;;;;;23.02;21.13;;;21.50;99.90;;;;;;5044031;28;20100;-53
2022/07/21 11:54:34;;;;;;;25.17;23.08;;;21.30;99.90;;;;;;5012634;28;20053;-55
2022/07/21 11:57:02;;;;;;;27.13;24.67;;;21.20;99.90;;;;;;5037579;28;20195;-49
2022/07/21 11:59:29;;;;;;;24.73;22.38;;;21.20;99.90;;;;;;5012709;28;20061;-49
2022/07/21 12:02:11;;;;;;;20.92;18.92;;;21.10;99.90;;;;;;5034731;28;20045;-51
2022/07/21 12:04:44;;;;;;;21.88;19.80;;;21.00;99.90;;;;;;5026520;28;20064;-51
2022/07/21 12:07:33;;;;;;;19.77;18.13;;;21.00;99.90;;;;;;5026611;28;20063;-52
2022/07/21 12:10:03;;;;;;;18.23;16.52;;;21.00;99.90;;;;;;5031052;28;20495;-51
2022/07/21 12:12:49;;;;;;;17.42;16.02;;;20.90;99.90;;;;;;5026434;28;20049;-53
2022/07/21 12:15:16;;;;;;;18.50;16.90;;;20.90;99.90;;;;;;5026097;28;20519;-51
2022/07/21 12:18:10;;;;;;;18.52;17.05;;;21.00;99.90;;;;;;5017329;28;20059;-49
2022/07/21 12:20:39;;;;;;;20.05;18.42;;;21.00;99.90;;;;;;4928475;29;20101;-52
2022/07/21 12:23:28;;;;;;;20.80;19.02;;;20.90;99.90;;;;;;4943592;29;20066;-51
2022/07/21 12:25:56;;;;;;;19.10;17.38;;;20.90;99.90;;;;;;4918125;29;20126;-53
2022/07/21 12:28:55;;;;;;;19.83;18.23;;;20.90;99.90;;;;;;4945360;29;20082;-54
2022/07/21 12:31:21;;;;;;;19.02;17.52;;;20.80;99.90;;;;;;4944983;29;20146;-44
2022/07/21 12:33:55;;;;;;;20.20;18.60;;;20.90;99.90;;;;;;4944689;29;20059;-49
2022/07/21 12:36:21;;;;;;;20.75;19.10;;;20.80;99.90;;;;;;4944379;29;20055;-47
2022/07/21 12:38:49;;;;;;;21.75;19.92;;;20.70;99.90;;;;;;4945125;29;20066;-53
2022/07/21 12:41:19;;;;;;;21.08;19.27;;;20.70;99.90;;;;;;4928147;29;20052;-54